createdAt,value
2019-03-20T00:00:27.466Z,56.67
2019-03-20T00:02:56.819Z,53.30
2019-03-20T00:05:26.152Z,52.73
2019-03-20T00:07:55.523Z,70.43
2019-03-20T00:10:25.914Z,95.63
2019-03-20T00:12:55.184Z,92.80
2019-03-20T00:15:24.462Z,115.03
2019-03-20T00:17:53.754Z,113.50
2019-03-20T00:20:23.086Z,124.67
2019-03-20T00:22:52.375Z,115.17
2019-03-20T00:25:21.685Z,107.70
2019-03-20T00:27:50.949Z,103.03
2019-03-20T00:30:21.092Z,100.60
2019-03-20T00:32:50.376Z,106.83
2019-03-20T00:35:19.726Z,101.17
2019-03-20T00:37:48.984Z,94.03
2019-03-20T00:40:19.122Z,78.80
2019-03-20T00:42:48.372Z,72.70
2019-03-20T00:45:22.628Z,76.70
2019-03-20T00:47:51.899Z,66.43
2019-03-20T00:50:21.543Z,73.53
2019-03-20T00:52:50.831Z,67.27
2019-03-20T00:55:20.508Z,61.97
2019-03-20T00:57:49.847Z,64.67
2019-03-20T01:00:23.235Z,74.07
2019-03-20T01:02:52.585Z,67.23
2019-03-20T01:05:22.272Z,69.33
2019-03-20T01:07:51.651Z,55.90
2019-03-20T01:10:26.990Z,58.57
2019-03-20T01:12:56.286Z,62.57
2019-03-20T01:15:25.620Z,64.13
2019-03-20T01:17:54.918Z,66.93
2019-03-20T01:20:27.462Z,72.27
2019-03-20T01:22:56.771Z,79.80
2019-03-20T01:25:26.099Z,74.20
2019-03-20T01:27:55.574Z,82.72
2019-03-20T01:30:31.152Z,86.67
2019-03-20T01:33:06.292Z,97.15
2019-03-20T01:35:35.730Z,103.45
2019-03-20T01:38:05.796Z,103.58
2019-03-20T01:40:35.246Z,103.17
2019-03-20T01:43:05.328Z,102.60
2019-03-20T01:45:34.948Z,105.60
2019-03-20T01:48:04.445Z,101.67
2019-03-20T01:50:34.000Z,97.27
2019-03-20T01:53:03.392Z,73.87
2019-03-20T01:55:32.755Z,70.32
2019-03-20T01:58:03.205Z,69.77
2019-03-20T02:00:33.045Z,63.37
2019-03-20T02:03:02.396Z,61.23
2019-03-20T02:05:36.214Z,62.65
2019-03-20T02:08:02.948Z,55.58
2019-03-20T02:10:32.265Z,56.90
2019-03-20T02:13:01.553Z,51.37
2019-03-20T02:15:38.781Z,49.10
2019-03-20T02:18:01.934Z,46.88
2019-03-20T02:20:31.221Z,47.10
2019-03-20T02:23:00.584Z,45.70
2019-03-20T02:25:32.301Z,46.35
2019-03-20T02:28:00.875Z,44.80
2019-03-20T02:30:30.330Z,49.47
2019-03-20T02:32:59.682Z,48.43
2019-03-20T02:35:29.029Z,48.17
2019-03-20T02:37:58.367Z,52.73
2019-03-20T02:40:27.855Z,54.80
2019-03-20T02:42:57.222Z,58.80
2019-03-20T02:45:26.638Z,59.20
2019-03-20T02:47:55.974Z,60.58
2019-03-20T02:50:25.313Z,60.43
2019-03-20T02:52:54.739Z,64.97
2019-03-20T02:55:24.088Z,63.55
2019-03-20T02:57:53.497Z,65.67
2019-03-20T03:00:22.898Z,62.13
2019-03-20T03:02:52.264Z,61.10
2019-03-20T03:05:21.604Z,60.00
2019-03-20T03:07:50.993Z,54.60
2019-03-20T03:10:20.402Z,52.95
2019-03-20T03:12:49.839Z,53.55
2019-03-20T03:15:19.172Z,53.95
2019-03-20T03:17:48.637Z,54.45
2019-03-20T03:20:18.035Z,57.50
2019-03-20T03:22:47.399Z,58.87
2019-03-20T03:25:16.739Z,58.60
2019-03-20T03:27:46.187Z,55.52
2019-03-20T03:30:17.762Z,55.78
2019-03-20T03:32:47.319Z,57.27
2019-03-20T03:35:19.592Z,57.55
2019-03-20T03:37:48.004Z,60.28
2019-03-20T03:40:18.590Z,64.60
2019-03-20T03:42:48.045Z,73.50
2019-03-20T03:45:17.737Z,78.40
2019-03-20T03:47:47.213Z,101.18
2019-03-20T03:50:16.667Z,84.62
2019-03-20T03:52:46.046Z,103.92
2019-03-20T03:55:15.949Z,77.65
2019-03-20T03:57:45.629Z,91.70
2019-03-20T04:00:21.370Z,79.03
2019-03-20T04:02:50.756Z,68.85
2019-03-20T04:05:20.129Z,71.17
2019-03-20T04:07:49.559Z,68.83
2019-03-20T04:10:19.085Z,72.32
2019-03-20T04:12:48.588Z,62.50
2019-03-20T04:15:18.194Z,66.90
2019-03-20T04:17:47.704Z,69.47
2019-03-20T04:20:18.333Z,69.30
2019-03-20T04:22:48.018Z,68.65
2019-03-20T04:25:17.642Z,68.87
2019-03-20T04:27:47.135Z,66.37
2019-03-20T04:30:19.931Z,66.95
2019-03-20T04:32:51.300Z,64.58
2019-03-20T04:35:20.665Z,71.90
2019-03-20T04:37:50.121Z,77.12
2019-03-20T04:40:19.825Z,77.30
2019-03-20T04:42:49.191Z,74.65
2019-03-20T04:45:18.651Z,66.15
2019-03-20T04:47:48.075Z,78.62
2019-03-20T04:50:17.708Z,82.53
2019-03-20T04:52:47.175Z,82.00
2019-03-20T04:55:16.520Z,81.60
2019-03-20T04:57:46.247Z,77.20
2019-03-20T05:00:23.690Z,86.20
2019-03-20T05:02:53.068Z,86.72
2019-03-20T05:05:22.470Z,94.47
2019-03-20T05:07:51.806Z,107.07
2019-03-20T05:10:21.266Z,108.32
2019-03-20T05:12:50.519Z,112.97
2019-03-20T05:15:19.795Z,112.37
2019-03-20T05:17:49.125Z,110.90
2019-03-20T05:20:19.565Z,102.85
2019-03-20T05:22:48.860Z,94.13
2019-03-20T05:25:18.132Z,89.52
2019-03-20T05:27:47.302Z,79.95
2019-03-20T05:30:16.618Z,73.25
2019-03-20T05:32:45.740Z,71.50
2019-03-20T05:35:14.245Z,67.65
2019-03-20T05:37:43.561Z,80.67
2019-03-20T05:40:15.198Z,91.57
2019-03-20T05:42:43.805Z,77.90
2019-03-20T05:45:17.532Z,66.72
2019-03-20T05:47:46.217Z,66.57
2019-03-20T05:50:16.629Z,61.62
2019-03-20T05:52:45.294Z,59.05
2019-03-20T05:55:14.217Z,57.60
2019-03-20T05:57:42.863Z,56.97
2019-03-20T06:00:21.072Z,57.73
2019-03-20T06:02:49.657Z,55.20
2019-03-20T06:05:18.149Z,58.27
2019-03-20T06:07:46.648Z,55.08
2019-03-20T06:10:16.269Z,55.67
2019-03-20T06:12:44.980Z,53.17
2019-03-20T06:15:14.496Z,55.30
2019-03-20T06:17:42.994Z,54.50
2019-03-20T06:20:15.029Z,50.70
2019-03-20T06:22:43.609Z,52.53
2019-03-20T06:25:16.002Z,49.63
2019-03-20T06:27:44.554Z,44.83
2019-03-20T06:30:16.619Z,47.27
2019-03-20T06:32:45.084Z,43.47
2019-03-20T06:35:13.744Z,49.87
2019-03-20T06:37:42.225Z,44.07
2019-03-20T06:40:13.040Z,40.40
2019-03-20T06:42:41.581Z,40.57
2019-03-20T06:45:13.152Z,37.80
2019-03-20T06:47:41.621Z,34.50
2019-03-20T06:50:13.083Z,29.80
2019-03-20T06:52:41.629Z,27.40
2019-03-20T06:55:10.783Z,26.17
2019-03-20T06:57:39.490Z,27.93
2019-03-20T07:00:41.678Z,27.30
2019-03-20T07:03:22.435Z,28.33
2019-03-20T07:06:14.848Z,26.30
2019-03-20T07:08:46.408Z,30.07
2019-03-20T07:11:14.395Z,31.47
2019-03-20T07:13:43.908Z,30.83
2019-03-20T07:16:12.375Z,32.47
2019-03-20T07:18:40.840Z,30.97
2019-03-20T07:21:09.301Z,31.07
2019-03-20T07:23:38.714Z,27.37
2019-03-20T07:26:07.177Z,27.50
2019-03-20T07:28:35.692Z,26.93
2019-03-20T07:31:14.728Z,25.67
2019-03-20T07:33:34.417Z,22.97
2019-03-20T07:36:02.894Z,24.57
2019-03-20T07:38:31.355Z,25.00
2019-03-20T07:40:59.859Z,27.53
2019-03-20T07:43:28.324Z,24.63
2019-03-20T07:45:56.897Z,25.50
2019-03-20T07:48:25.379Z,25.63
2019-03-20T07:50:53.855Z,27.07
2019-03-20T07:53:22.312Z,27.20
2019-03-20T07:55:50.825Z,27.70
2019-03-20T07:58:19.287Z,27.10
2019-03-20T08:00:47.814Z,27.30
2019-03-20T08:03:16.264Z,28.17
2019-03-20T08:05:44.772Z,26.77
2019-03-20T08:08:13.354Z,24.00
2019-03-20T08:10:41.855Z,25.17
2019-03-20T08:13:10.313Z,23.30
2019-03-20T08:15:38.804Z,20.40
2019-03-20T08:18:07.268Z,20.20
2019-03-20T08:20:35.757Z,18.87
2019-03-20T08:23:04.388Z,21.47
2019-03-20T08:25:32.903Z,18.00
2019-03-20T08:28:01.358Z,15.80
2019-03-20T08:30:29.841Z,17.43
2019-03-20T08:32:58.373Z,15.83
2019-03-20T08:35:26.871Z,15.33
2019-03-20T08:37:56.541Z,16.73
2019-03-20T08:40:25.017Z,15.17
2019-03-20T08:42:53.481Z,13.77
2019-03-20T08:45:22.035Z,15.40
2019-03-20T08:47:50.526Z,14.83
2019-03-20T08:50:23.033Z,12.97
2019-03-20T08:52:51.496Z,13.73
2019-03-20T08:55:22.353Z,12.17
2019-03-20T08:57:50.882Z,12.87
2019-03-20T09:00:20.232Z,12.57
2019-03-20T09:02:48.885Z,10.37
2019-03-20T09:05:18.469Z,11.23
2019-03-20T09:07:47.803Z,11.70
2019-03-20T09:10:23.331Z,11.13
2019-03-20T09:12:51.865Z,9.30
2019-03-20T09:15:21.913Z,6.73
2019-03-20T09:17:50.441Z,7.67
2019-03-20T09:20:19.954Z,10.37
2019-03-20T09:22:48.438Z,7.00
2019-03-20T09:25:19.148Z,6.03
2019-03-20T09:27:47.672Z,6.37
2019-03-20T09:30:26.935Z,5.73
2019-03-20T09:32:55.392Z,6.30
2019-03-20T09:35:24.019Z,6.40
2019-03-20T09:37:52.903Z,5.53
2019-03-20T09:40:24.077Z,5.83
2019-03-20T09:42:52.646Z,6.83
2019-03-20T09:45:23.135Z,5.53
2019-03-20T09:47:51.835Z,7.93
2019-03-20T09:50:21.477Z,6.77
2019-03-20T09:52:50.239Z,8.13
2019-03-20T09:55:18.775Z,7.30
2019-03-20T09:57:47.226Z,8.37
2019-03-20T10:00:25.448Z,7.83
2019-03-20T10:02:55.241Z,7.50
2019-03-20T10:05:23.774Z,7.63
2019-03-20T10:07:52.638Z,5.80
2019-03-20T10:10:28.075Z,3.00
2019-03-20T10:12:56.571Z,2.67
2019-03-20T10:15:26.964Z,2.10
2019-03-20T10:17:56.742Z,2.30
2019-03-20T10:20:25.340Z,2.50
2019-03-20T10:22:54.114Z,2.83
2019-03-20T10:25:22.808Z,3.07
2019-03-20T10:27:52.082Z,2.73
2019-03-20T10:30:22.831Z,2.67
2019-03-20T10:32:51.330Z,2.90
2019-03-20T10:35:19.983Z,2.70
2019-03-20T10:37:48.507Z,3.30
2019-03-20T10:40:22.217Z,3.00
2019-03-20T10:42:51.107Z,2.60
2019-03-20T10:45:21.172Z,2.77
2019-03-20T10:47:52.812Z,2.80
2019-03-20T10:50:28.007Z,3.00
2019-03-20T10:52:56.718Z,2.90
2019-03-20T10:55:25.169Z,3.30
2019-03-20T10:57:53.689Z,2.77
2019-03-20T11:00:24.043Z,2.83
2019-03-20T11:02:52.623Z,2.60
2019-03-20T11:05:21.156Z,3.00
2019-03-20T11:07:49.888Z,2.40
2019-03-20T11:10:25.816Z,2.10
2019-03-20T11:12:54.536Z,2.20
2019-03-20T11:15:23.922Z,2.30
2019-03-20T11:17:52.467Z,1.83
2019-03-20T11:20:21.961Z,2.77
2019-03-20T11:22:50.512Z,3.23
2019-03-20T11:25:23.315Z,2.30
2019-03-20T11:27:51.818Z,2.10
2019-03-20T11:30:25.184Z,1.93
2019-03-20T11:32:53.683Z,1.83
2019-03-20T11:35:22.490Z,1.93
2019-03-20T11:37:51.164Z,1.70
2019-03-20T11:40:27.999Z,2.03
2019-03-20T11:42:56.650Z,2.10
2019-03-20T11:45:25.256Z,3.50
2019-03-20T11:47:53.793Z,2.70
2019-03-20T11:50:34.639Z,3.80
2019-03-20T11:53:03.489Z,1.90
2019-03-20T11:55:31.947Z,2.40
2019-03-20T11:58:00.438Z,2.60
2019-03-20T12:00:29.059Z,1.97
2019-03-20T12:02:57.537Z,2.10
2019-03-20T12:05:25.997Z,2.40
2019-03-20T12:07:54.499Z,2.50
2019-03-20T12:10:30.783Z,2.57
2019-03-20T12:12:59.275Z,2.27
2019-03-20T12:15:27.816Z,2.03
2019-03-20T12:17:56.404Z,2.10
2019-03-20T12:20:25.447Z,3.07
2019-03-20T12:22:54.190Z,2.77
2019-03-20T12:25:32.978Z,2.53
2019-03-20T12:28:01.611Z,3.47
2019-03-20T12:30:31.822Z,2.77
2019-03-20T12:33:00.367Z,2.80
2019-03-20T12:35:37.245Z,2.80
2019-03-20T12:38:14.157Z,2.43
2019-03-20T12:40:36.624Z,3.40
2019-03-20T12:43:05.845Z,2.70
2019-03-20T12:45:37.575Z,2.73
2019-03-20T12:48:07.497Z,3.33
2019-03-20T12:50:36.908Z,2.60
2019-03-20T12:53:19.970Z,2.93
2019-03-20T12:55:48.455Z,3.97
2019-03-20T12:58:19.906Z,3.07
2019-03-20T13:03:16.079Z,2.90
2019-03-20T13:05:44.533Z,2.80
2019-03-20T13:08:13.022Z,2.70
2019-03-20T13:10:41.489Z,3.10
2019-03-20T13:13:10.047Z,2.40
2019-03-20T13:15:38.566Z,3.27
2019-03-20T13:18:07.128Z,2.60
2019-03-20T13:20:35.685Z,2.90
2019-03-20T13:23:07.236Z,3.43
2019-03-20T13:25:35.766Z,3.53
2019-03-20T13:28:05.381Z,2.70
2019-03-20T13:30:51.597Z,3.20
2019-03-20T13:33:25.589Z,2.80
2019-03-20T13:35:50.425Z,3.10
2019-03-20T13:38:18.909Z,2.73
2019-03-20T13:40:47.398Z,2.83
2019-03-20T13:43:15.890Z,3.20
2019-03-20T13:45:44.348Z,3.20
2019-03-20T13:48:12.824Z,3.53
2019-03-20T13:50:41.357Z,3.57
2019-03-20T13:53:09.883Z,3.40
2019-03-20T13:55:38.407Z,3.58
2019-03-20T13:58:07.001Z,3.20
2019-03-20T14:00:35.823Z,3.62
2019-03-20T14:03:04.367Z,3.33
2019-03-20T14:05:32.837Z,3.30
2019-03-20T14:08:01.364Z,3.10
2019-03-20T14:10:31.281Z,3.30
2019-03-20T14:12:59.766Z,3.45
2019-03-20T14:15:28.228Z,3.27
2019-03-20T14:17:56.687Z,3.27
2019-03-20T14:20:33.193Z,3.10
2019-03-20T14:23:01.667Z,3.40
2019-03-20T14:25:30.221Z,4.00
2019-03-20T14:27:59.720Z,3.50
2019-03-20T14:30:29.478Z,3.15
2019-03-20T14:32:57.997Z,3.22
2019-03-20T14:35:27.241Z,2.83
2019-03-20T14:37:56.061Z,3.80
2019-03-20T14:40:36.123Z,3.15
2019-03-20T14:43:01.500Z,3.37
2019-03-20T14:45:30.283Z,3.37
2019-03-20T14:47:58.900Z,3.10
2019-03-20T14:50:32.095Z,3.85
2019-03-20T14:53:00.717Z,3.67
2019-03-20T14:55:29.566Z,3.35
2019-03-20T14:57:58.079Z,3.87
2019-03-20T15:00:28.754Z,3.92
2019-03-20T15:02:57.231Z,4.33
2019-03-20T15:05:25.948Z,3.60
2019-03-20T15:07:54.483Z,4.00
2019-03-20T15:10:23.997Z,3.73
2019-03-20T15:12:53.313Z,4.33
2019-03-20T15:15:24.649Z,3.55
2019-03-20T15:17:53.161Z,4.08
2019-03-20T15:20:22.543Z,3.33
2019-03-20T15:22:51.092Z,4.05
2019-03-20T15:25:19.605Z,4.00
2019-03-20T15:27:48.119Z,3.65
2019-03-20T15:30:29.528Z,4.20
2019-03-20T15:32:57.455Z,3.85
2019-03-20T15:35:26.202Z,3.50
2019-03-20T15:37:55.650Z,3.93
2019-03-20T15:40:31.012Z,3.02
2019-03-20T15:42:59.505Z,3.43
2019-03-20T15:45:27.992Z,3.73
2019-03-20T15:47:56.739Z,3.60
2019-03-20T15:50:28.883Z,3.60
2019-03-20T15:52:57.347Z,4.33
2019-03-20T15:55:33.760Z,3.70
2019-03-20T15:58:02.224Z,3.60
2019-03-20T16:00:30.871Z,2.77
2019-03-20T16:03:08.243Z,3.07
2019-03-20T16:05:36.725Z,3.63
2019-03-20T16:08:05.446Z,4.07
2019-03-20T16:10:34.058Z,2.80
2019-03-20T16:13:02.517Z,3.03
2019-03-20T16:15:31.136Z,3.23
2019-03-20T16:17:59.594Z,3.13
2019-03-20T16:20:28.188Z,3.50
2019-03-20T16:22:56.658Z,3.83
2019-03-20T16:25:25.308Z,4.00
2019-03-20T16:27:53.795Z,4.50
2019-03-20T16:30:23.956Z,6.70
2019-03-20T16:32:52.483Z,3.87
2019-03-20T16:35:21.278Z,4.80
2019-03-20T16:37:49.744Z,4.57
2019-03-20T16:40:29.661Z,3.80
2019-03-20T16:42:58.129Z,4.60
2019-03-20T16:45:31.284Z,4.77
2019-03-20T16:47:59.812Z,4.47
2019-03-20T16:50:28.560Z,3.50
2019-03-20T16:52:57.115Z,3.93
2019-03-20T16:55:25.828Z,4.77
2019-03-20T16:57:54.287Z,6.40
2019-03-20T17:00:33.153Z,8.67
2019-03-20T17:03:01.687Z,5.80
2019-03-20T17:05:31.081Z,5.30
2019-03-20T17:07:59.498Z,4.83
2019-03-20T17:10:41.517Z,4.57
2019-03-20T17:13:09.976Z,4.70
2019-03-20T17:15:39.615Z,6.60
2019-03-20T17:18:08.459Z,4.47
2019-03-20T17:20:37.009Z,4.67
2019-03-20T17:23:07.786Z,5.13
2019-03-20T17:25:36.608Z,4.53
2019-03-20T17:28:05.707Z,5.90
2019-03-20T17:30:39.008Z,10.60
2019-03-20T17:33:08.124Z,11.03
2019-03-20T17:35:36.687Z,12.57
2019-03-20T17:38:05.801Z,13.87
2019-03-20T17:40:34.354Z,15.23
2019-03-20T17:43:03.269Z,14.40
2019-03-20T17:45:32.396Z,16.27
2019-03-20T17:48:01.084Z,12.40
2019-03-20T17:50:30.992Z,10.47
2019-03-20T17:53:00.054Z,8.83
2019-03-20T17:55:28.695Z,7.93
2019-03-20T17:57:57.548Z,6.47
2019-03-20T18:00:44.036Z,7.97
2019-03-20T18:03:12.684Z,6.87
2019-03-20T18:05:41.402Z,7.13
2019-03-20T18:08:10.152Z,7.53
2019-03-20T18:10:38.620Z,13.17
2019-03-20T18:13:07.880Z,13.27
2019-03-20T18:15:36.378Z,15.67
2019-03-20T18:18:05.911Z,13.73
2019-03-20T18:20:34.441Z,10.90
2019-03-20T18:23:03.001Z,11.07
2019-03-20T18:25:31.606Z,12.37
2019-03-20T18:28:00.496Z,14.77
2019-03-20T18:30:36.895Z,12.57
2019-03-20T18:33:05.622Z,12.13
2019-03-20T18:35:34.090Z,12.77
2019-03-20T18:38:03.059Z,14.43
2019-03-20T18:40:31.519Z,16.43
2019-03-20T18:43:00.020Z,15.90
2019-03-20T18:45:28.862Z,21.53
2019-03-20T18:47:57.443Z,23.10
2019-03-20T18:50:26.739Z,22.63
2019-03-20T18:52:55.325Z,14.43
2019-03-20T18:55:23.999Z,14.20
2019-03-20T18:57:52.506Z,13.87
2019-03-20T19:00:34.500Z,15.43
2019-03-20T19:03:21.154Z,17.73
2019-03-20T19:05:55.871Z,18.03
2019-03-20T19:08:24.362Z,19.30
2019-03-20T19:10:52.817Z,20.27
2019-03-20T19:13:21.540Z,20.70
2019-03-20T19:15:50.073Z,21.53
2019-03-20T19:18:18.659Z,23.17
2019-03-20T19:20:47.183Z,19.57
2019-03-20T19:23:15.663Z,21.90
2019-03-20T19:25:44.454Z,20.10
2019-03-20T19:28:14.864Z,20.20
2019-03-20T19:30:43.339Z,18.23
2019-03-20T19:33:11.914Z,19.00
2019-03-20T19:35:40.371Z,19.87
2019-03-20T19:38:08.885Z,18.40
2019-03-20T19:40:37.360Z,19.33
2019-03-20T19:43:06.862Z,23.87
2019-03-20T19:45:35.336Z,31.30
2019-03-20T19:48:03.890Z,42.57
2019-03-20T19:50:32.359Z,40.33
2019-03-20T19:53:00.855Z,53.10
2019-03-20T19:55:29.350Z,57.03
2019-03-20T19:57:57.829Z,60.27
2019-03-20T20:00:27.387Z,58.27
2019-03-20T20:02:56.070Z,43.33
2019-03-20T20:05:26.538Z,38.63
2019-03-20T20:07:55.073Z,35.63
2019-03-20T20:10:23.647Z,32.40
2019-03-20T20:12:52.117Z,31.77
2019-03-20T20:15:26.425Z,31.87
2019-03-20T20:17:54.981Z,30.23
2019-03-20T20:20:31.519Z,26.70
2019-03-20T20:23:00.042Z,27.60
2019-03-20T20:25:28.684Z,28.43
2019-03-20T20:27:57.221Z,26.90
2019-03-20T20:30:25.764Z,27.87
2019-03-20T20:32:54.243Z,30.27
2019-03-20T20:35:22.799Z,28.77
2019-03-20T20:37:51.464Z,30.33
2019-03-20T20:40:24.266Z,22.97
2019-03-20T20:42:53.735Z,23.43
2019-03-20T20:45:23.740Z,22.67
2019-03-20T20:47:52.230Z,24.77
2019-03-20T20:50:20.832Z,27.07
2019-03-20T20:52:49.346Z,25.13
2019-03-20T20:55:24.530Z,23.80
2019-03-20T20:57:53.179Z,24.07
2019-03-20T21:00:26.648Z,27.33
2019-03-20T21:02:55.310Z,32.37
2019-03-20T21:05:23.770Z,34.33
2019-03-20T21:07:52.397Z,25.50
2019-03-20T21:10:24.844Z,23.23
2019-03-20T21:12:56.741Z,26.97
2019-03-20T21:15:45.151Z,22.47
2019-03-20T21:18:16.854Z,26.00
2019-03-20T21:20:48.876Z,29.43
2019-03-20T21:23:38.450Z,29.43
2019-03-20T21:26:31.268Z,31.80
2019-03-20T21:29:34.902Z,30.07
2019-03-20T21:32:09.205Z,26.27
2019-03-20T21:35:06.203Z,27.40
2019-03-20T21:37:49.399Z,28.87
2019-03-20T21:40:18.601Z,27.17
2019-03-20T21:43:15.277Z,29.67
2019-03-20T21:45:58.041Z,26.87
2019-03-20T21:48:26.510Z,30.00
2019-03-20T21:51:14.763Z,29.10
2019-03-20T21:54:13.449Z,28.37
2019-03-20T21:57:01.456Z,27.03
2019-03-20T21:59:50.660Z,25.60
2019-03-20T22:02:24.836Z,27.27
2019-03-20T22:04:53.383Z,28.73
2019-03-20T22:07:22.118Z,27.13
2019-03-20T22:09:56.288Z,25.57
2019-03-20T22:12:39.999Z,24.53
2019-03-20T22:15:20.330Z,25.80
2019-03-20T22:18:04.124Z,25.20
2019-03-20T22:20:35.674Z,29.37
2019-03-20T22:23:26.196Z,29.27
2019-03-20T22:26:12.727Z,27.83
2019-03-20T22:28:56.218Z,30.03
2019-03-20T22:31:27.009Z,30.73
2019-03-20T22:34:31.924Z,29.27
2019-03-20T22:40:09.582Z,28.23
2019-03-20T22:42:49.978Z,26.60
2019-03-20T22:45:54.228Z,28.20
2019-03-20T22:48:34.667Z,29.17
2019-03-20T22:51:38.373Z,30.00
2019-03-20T22:54:28.114Z,30.43
2019-03-20T22:57:14.539Z,30.67
2019-03-20T22:59:43.101Z,30.20
2019-03-20T23:02:20.235Z,29.90
2019-03-20T23:04:59.681Z,30.37
2019-03-20T23:07:29.402Z,29.27
2019-03-20T23:09:57.879Z,28.17
2019-03-20T23:12:27.356Z,29.53
2019-03-20T23:14:55.828Z,30.57
2019-03-20T23:17:24.465Z,30.10
2019-03-20T23:19:53.067Z,29.10
2019-03-20T23:22:21.592Z,30.05
2019-03-20T23:24:50.114Z,30.07
2019-03-20T23:27:22.984Z,30.27
2019-03-20T23:29:51.461Z,31.50
2019-03-20T23:32:20.194Z,30.87
2019-03-20T23:34:48.694Z,29.27
2019-03-20T23:37:17.174Z,28.43
2019-03-20T23:39:45.710Z,28.90
2019-03-20T23:42:14.171Z,30.90
2019-03-20T23:44:42.655Z,31.43
2019-03-20T23:47:11.120Z,30.07
2019-03-20T23:49:39.640Z,27.40
2019-03-20T23:52:08.104Z,27.87
2019-03-20T23:54:44.301Z,27.47
2019-03-20T23:57:12.765Z,28.03
2019-03-20T23:59:41.349Z,28.90
